createdAt,value
2018-07-06T00:01:49.451Z,19.74
2018-07-06T00:04:29.421Z,19.76
2018-07-06T00:07:10.188Z,19.80
2018-07-06T00:09:49.745Z,19.90
2018-07-06T00:12:29.547Z,19.90
2018-07-06T00:15:09.254Z,19.90
2018-07-06T00:17:49.268Z,19.85
2018-07-06T00:20:29.344Z,19.72
2018-07-06T00:23:09.257Z,19.78
2018-07-06T00:25:49.107Z,19.82
2018-07-06T00:28:28.728Z,19.81
2018-07-06T00:31:08.326Z,19.73
2018-07-06T00:33:49.525Z,19.76
2018-07-06T00:36:29.186Z,19.86
2018-07-06T00:39:08.788Z,19.74
2018-07-06T00:41:48.520Z,19.77
2018-07-06T00:44:28.220Z,19.72
2018-07-06T00:47:07.879Z,19.59
2018-07-06T00:49:47.512Z,19.65
2018-07-06T00:52:27.143Z,19.70
2018-07-06T00:55:06.785Z,19.59
2018-07-06T00:57:53.571Z,19.55
2018-07-06T01:00:33.481Z,19.53
2018-07-06T01:03:13.838Z,19.65
2018-07-06T01:05:53.389Z,19.52
2018-07-06T01:08:33.172Z,19.71
2018-07-06T01:11:12.764Z,19.69
2018-07-06T01:13:52.343Z,19.72
2018-07-06T01:16:32.176Z,19.69
2018-07-06T01:19:12.792Z,19.50
2018-07-06T01:21:52.901Z,19.45
2018-07-06T01:24:32.819Z,19.48
2018-07-06T01:27:12.628Z,19.49
2018-07-06T01:29:52.285Z,19.53
2018-07-06T01:32:31.813Z,19.76
2018-07-06T01:35:11.723Z,19.64
2018-07-06T01:37:51.376Z,19.57
2018-07-06T01:40:31.120Z,19.45
2018-07-06T01:43:10.592Z,19.59
2018-07-06T01:45:50.147Z,19.51
2018-07-06T01:48:29.853Z,19.55
2018-07-06T01:51:09.726Z,19.39
2018-07-06T01:53:49.280Z,19.36
2018-07-06T01:56:29.104Z,19.33
2018-07-06T01:59:08.629Z,19.29
2018-07-06T02:07:29.392Z,19.15
2018-07-06T02:10:09.022Z,19.15
2018-07-06T02:12:49.301Z,19.15
2018-07-06T02:15:28.907Z,19.16
2018-07-06T02:18:09.275Z,19.26
2018-07-06T02:20:48.828Z,19.14
2018-07-06T02:23:28.689Z,19.15
2018-07-06T02:26:08.244Z,19.18
2018-07-06T02:28:49.092Z,19.07
2018-07-06T02:31:28.755Z,19.08
2018-07-06T02:34:08.444Z,19.16
2018-07-06T02:36:47.960Z,19.13
2018-07-06T02:39:27.728Z,19.07
2018-07-06T02:42:07.197Z,19.11
2018-07-06T02:44:47.010Z,19.14
2018-07-06T02:47:26.660Z,19.05
2018-07-06T02:50:06.218Z,18.99
2018-07-06T02:52:45.893Z,19.05
2018-07-06T02:55:25.580Z,19.03
2018-07-06T02:58:05.901Z,19.09
2018-07-06T03:00:45.554Z,19.05
2018-07-06T03:03:26.626Z,19.11
2018-07-06T03:06:06.911Z,19.09
2018-07-06T03:08:46.672Z,19.00
2018-07-06T03:11:26.494Z,18.96
2018-07-06T03:14:06.172Z,18.99
2018-07-06T03:16:45.971Z,18.93
2018-07-06T03:19:26.435Z,18.93
2018-07-06T03:22:05.996Z,18.93
2018-07-06T03:24:46.504Z,18.97
2018-07-06T03:27:26.090Z,18.97
2018-07-06T03:30:06.305Z,19.15
2018-07-06T03:32:46.104Z,19.03
2018-07-06T03:35:26.275Z,19.11
2018-07-06T03:38:06.773Z,19.14
2018-07-06T03:40:46.359Z,19.13
2018-07-06T03:43:26.327Z,19.25
2018-07-06T03:46:05.913Z,19.15
2018-07-06T03:48:45.609Z,19.22
2018-07-06T03:51:25.155Z,19.10
2018-07-06T03:54:04.847Z,19.10
2018-07-06T03:56:44.380Z,19.21
2018-07-06T03:59:24.071Z,19.16
2018-07-06T04:02:03.652Z,19.16
2018-07-06T04:04:43.376Z,19.14
2018-07-06T04:07:24.620Z,19.24
2018-07-06T04:10:04.166Z,19.09
2018-07-06T04:12:43.588Z,19.12
2018-07-06T04:15:23.488Z,19.20
2018-07-06T04:18:03.128Z,19.32
2018-07-06T04:20:42.880Z,19.17
2018-07-06T04:23:22.548Z,19.27
2018-07-06T04:26:02.451Z,19.20
2018-07-06T04:28:42.063Z,19.19
2018-07-06T04:31:21.836Z,19.20
2018-07-06T04:34:01.760Z,19.38
2018-07-06T04:36:41.524Z,19.23
2018-07-06T04:39:21.033Z,19.39
2018-07-06T04:42:00.760Z,19.28
2018-07-06T04:44:40.956Z,19.26
2018-07-06T04:47:21.028Z,19.23
2018-07-06T04:50:00.612Z,19.35
2018-07-06T04:52:40.418Z,19.35
2018-07-06T04:55:19.927Z,19.41
2018-07-06T04:58:00.591Z,19.41
2018-07-06T05:00:40.546Z,19.41
2018-07-06T05:03:20.275Z,19.48
2018-07-06T05:05:59.849Z,19.42
2018-07-06T05:08:39.548Z,19.51
2018-07-06T05:11:19.188Z,19.58
2018-07-06T05:13:59.000Z,19.54
2018-07-06T05:16:38.617Z,19.60
2018-07-06T05:19:18.331Z,19.61
2018-07-06T05:21:58.092Z,19.60
2018-07-06T05:24:38.036Z,19.77
2018-07-06T05:27:18.574Z,19.63
2018-07-06T05:29:58.193Z,19.56
2018-07-06T05:32:37.851Z,19.66
2018-07-06T05:35:18.248Z,19.74
2018-07-06T05:37:57.828Z,19.78
2018-07-06T05:43:27.859Z,19.97
2018-07-06T05:46:07.401Z,19.94
2018-07-06T05:48:47.132Z,19.98
2018-07-06T05:51:26.976Z,19.93
2018-07-06T05:54:06.505Z,20.03
2018-07-06T05:56:46.171Z,20.01
2018-07-06T05:59:25.848Z,19.97
2018-07-06T06:02:06.390Z,19.96
2018-07-06T06:04:45.977Z,20.01
2018-07-06T06:07:24.951Z,20.04
2018-07-06T06:09:54.479Z,20.02
2018-07-06T06:12:24.360Z,20.02
2018-07-06T06:14:53.493Z,20.12
2018-07-06T06:17:22.124Z,20.15
2018-07-06T06:19:50.905Z,20.20
2018-07-06T06:22:19.749Z,20.18
2018-07-06T06:24:48.863Z,20.16
2018-07-06T06:27:17.560Z,20.24
2018-07-06T06:29:46.352Z,20.31
2018-07-06T06:32:15.562Z,20.19
2018-07-06T06:34:44.832Z,20.22
2018-07-06T06:37:14.260Z,20.19
2018-07-06T06:39:43.768Z,20.24
2018-07-06T06:42:13.308Z,20.22
2018-07-06T06:44:42.598Z,20.31
2018-07-06T06:47:12.345Z,20.22
2018-07-06T06:49:41.902Z,20.32
2018-07-06T06:52:12.019Z,20.18
2018-07-06T06:54:41.535Z,20.38
2018-07-06T06:57:10.752Z,20.47
2018-07-06T06:59:40.179Z,20.50
2018-07-06T07:02:09.206Z,20.57
2018-07-06T07:04:39.214Z,20.50
2018-07-06T07:07:08.134Z,20.46
2018-07-06T07:09:37.214Z,20.53
2018-07-06T07:12:06.160Z,20.59
2018-07-06T07:14:34.983Z,20.63
2018-07-06T07:17:04.483Z,20.66
2018-07-06T07:19:33.359Z,20.74
2018-07-06T07:22:02.273Z,20.82
2018-07-06T07:24:30.864Z,20.68
2018-07-06T07:27:01.462Z,20.66
2018-07-06T07:29:30.813Z,20.59
2018-07-06T07:31:59.725Z,20.59
2018-07-06T07:34:28.523Z,20.75
2018-07-06T07:36:57.180Z,20.78
2018-07-06T07:39:25.980Z,20.79
2018-07-06T07:41:54.701Z,20.82
2018-07-06T07:44:23.349Z,20.75
2018-07-06T07:46:51.925Z,20.83
2018-07-06T07:49:20.615Z,20.70
2018-07-06T07:52:04.488Z,20.74
2018-07-06T07:54:44.209Z,20.94
2018-07-06T07:57:12.913Z,21.04
2018-07-06T07:59:42.034Z,20.96
2018-07-06T08:02:11.472Z,20.97
2018-07-06T08:04:40.356Z,20.86
2018-07-06T08:07:08.971Z,20.88
2018-07-06T08:09:37.892Z,20.89
2018-07-06T08:12:06.592Z,20.95
2018-07-06T08:14:35.375Z,21.03
2018-07-06T08:17:04.056Z,21.05
2018-07-06T08:19:32.781Z,21.00
2018-07-06T08:22:02.264Z,21.03
2018-07-06T08:24:30.887Z,21.04
2018-07-06T08:26:59.632Z,21.15
2018-07-06T08:29:28.193Z,21.17
2018-07-06T08:31:56.828Z,21.10
2018-07-06T08:40:06.928Z,21.25
2018-07-06T08:42:36.415Z,21.29
2018-07-06T08:45:05.392Z,21.31
2018-07-06T08:47:34.204Z,21.22
2018-07-06T08:50:03.368Z,21.22
2018-07-06T08:52:31.959Z,21.35
2018-07-06T08:55:00.522Z,21.39
2018-07-06T08:57:30.259Z,21.42
2018-07-06T08:59:58.821Z,21.38
2018-07-06T09:02:27.693Z,21.34
2018-07-06T09:04:57.021Z,21.24
2018-07-06T09:07:25.878Z,21.25
2018-07-06T09:09:55.243Z,21.45
2018-07-06T09:12:23.831Z,21.49
2018-07-06T09:14:52.392Z,21.43
2018-07-06T09:17:21.488Z,21.39
2018-07-06T09:19:50.989Z,21.38
2018-07-06T09:22:19.763Z,21.52
2018-07-06T09:24:49.856Z,21.39
2018-07-06T09:27:18.428Z,21.42
2018-07-06T09:29:47.035Z,21.63
2018-07-06T09:32:15.614Z,21.72
2018-07-06T09:34:44.215Z,21.72
2018-07-06T09:37:13.093Z,21.75
2018-07-06T09:39:42.584Z,21.75
2018-07-06T09:42:11.339Z,21.96
2018-07-06T09:44:40.017Z,21.76
2018-07-06T09:47:08.591Z,21.61
2018-07-06T09:49:37.529Z,21.64
2018-07-06T09:52:06.132Z,21.58
2018-07-06T09:54:34.756Z,21.66
2018-07-06T09:57:03.508Z,21.76
2018-07-06T09:59:32.136Z,21.64
2018-07-06T10:02:00.740Z,21.62
2018-07-06T10:04:29.364Z,21.59
2018-07-06T10:06:58.765Z,21.62
2018-07-06T10:09:27.769Z,21.65
2018-07-06T10:11:56.780Z,21.63
2018-07-06T10:14:25.452Z,21.57
2018-07-06T10:16:54.221Z,21.57
2018-07-06T10:19:22.961Z,21.68
2018-07-06T10:21:51.579Z,21.87
2018-07-06T10:24:20.358Z,22.02
2018-07-06T10:26:48.974Z,22.02
2018-07-06T10:31:29.046Z,21.95
2018-07-06T10:33:57.645Z,21.96
2018-07-06T10:36:26.407Z,22.01
2018-07-06T10:38:55.025Z,22.10
2018-07-06T10:41:23.632Z,22.13
2018-07-06T10:43:52.182Z,22.23
2018-07-06T10:46:20.919Z,22.29
2018-07-06T10:48:49.483Z,22.44
2018-07-06T10:51:18.043Z,22.43
2018-07-06T10:53:46.608Z,22.66
2018-07-06T10:56:15.188Z,22.85
2018-07-06T10:58:43.999Z,22.97
2018-07-06T11:01:12.752Z,22.90
2018-07-06T11:03:41.676Z,22.85
2018-07-06T11:06:10.292Z,22.94
2018-07-06T11:08:38.920Z,22.92
2018-07-06T11:11:07.492Z,22.97
2018-07-06T11:13:36.049Z,23.17
2018-07-06T11:16:04.636Z,22.92
2018-07-06T11:18:33.247Z,22.79
2018-07-06T11:21:01.860Z,22.81
2018-07-06T11:23:30.411Z,23.11
2018-07-06T11:25:58.991Z,23.11
2018-07-06T11:28:27.638Z,22.98
2018-07-06T11:30:56.184Z,22.73
2018-07-06T11:33:24.804Z,22.61
2018-07-06T11:35:53.351Z,22.61
2018-07-06T11:38:22.015Z,22.62
2018-07-06T11:40:50.604Z,22.60
2018-07-06T11:43:19.204Z,22.67
2018-07-06T11:45:47.748Z,22.66
2018-07-06T11:48:16.397Z,22.60
2018-07-06T11:50:44.956Z,22.64
2018-07-06T11:53:13.584Z,22.51
2018-07-06T11:55:42.174Z,22.51
2018-07-06T11:58:10.740Z,22.44
2018-07-06T12:00:39.328Z,22.42
2018-07-06T12:03:07.968Z,22.42
2018-07-06T12:05:37.358Z,22.38
2018-07-06T12:08:05.990Z,22.13
2018-07-06T12:10:34.721Z,22.05
2018-07-06T12:13:03.472Z,22.08
2018-07-06T12:15:32.365Z,21.99
2018-07-06T12:18:01.100Z,22.01
2018-07-06T12:20:29.668Z,22.01
2018-07-06T12:22:58.248Z,21.98
2018-07-06T12:25:26.909Z,21.97
2018-07-06T12:27:55.666Z,22.06
2018-07-06T12:30:24.176Z,21.96
2018-07-06T12:32:52.691Z,21.95
2018-07-06T12:35:21.236Z,22.06
2018-07-06T12:37:49.833Z,22.09
2018-07-06T12:40:19.220Z,22.09
2018-07-06T12:42:47.782Z,22.06
2018-07-06T12:45:16.967Z,22.08
2018-07-06T12:47:45.523Z,22.08
2018-07-06T12:50:14.133Z,21.91
2018-07-06T12:52:42.701Z,21.88
2018-07-06T12:55:11.528Z,21.86
2018-07-06T12:57:40.123Z,21.79
2018-07-06T13:00:08.742Z,21.79
2018-07-06T13:02:37.326Z,21.78
2018-07-06T13:05:07.021Z,21.72
2018-07-06T13:07:35.630Z,21.68
2018-07-06T13:10:04.267Z,21.68
2018-07-06T13:12:32.892Z,21.72
2018-07-06T13:15:15.724Z,21.71
2018-07-06T13:17:44.281Z,22.17
2018-07-06T13:20:13.392Z,22.22
2018-07-06T13:22:41.949Z,22.29
2018-07-06T13:25:11.215Z,22.14
2018-07-06T13:27:40.284Z,22.21
2018-07-06T13:30:09.687Z,22.23
2018-07-06T13:32:40.551Z,22.22
2018-07-06T13:35:12.940Z,21.96
2018-07-06T13:37:41.514Z,21.98
2018-07-06T13:40:10.103Z,21.94
2018-07-06T13:42:38.748Z,21.89
2018-07-06T13:45:07.400Z,21.84
2018-07-06T13:47:36.074Z,21.88
2018-07-06T13:50:04.716Z,21.81
2018-07-06T13:52:33.301Z,21.94
2018-07-06T13:55:02.015Z,22.09
2018-07-06T13:57:30.817Z,22.20
2018-07-06T13:59:59.371Z,22.25
2018-07-06T14:02:27.958Z,22.28
2018-07-06T14:04:57.333Z,22.19
2018-07-06T14:07:25.966Z,22.19
2018-07-06T14:09:54.847Z,22.21
2018-07-06T14:12:23.553Z,22.04
2018-07-06T14:14:52.245Z,22.07
2018-07-06T14:17:20.866Z,22.14
2018-07-06T14:19:49.462Z,21.94
2018-07-06T14:22:18.064Z,22.13
2018-07-06T14:24:46.624Z,22.17
2018-07-06T14:27:15.180Z,22.17
2018-07-06T14:29:44.032Z,22.10
2018-07-06T14:32:12.717Z,22.09
2018-07-06T14:34:41.544Z,21.99
2018-07-06T14:37:10.316Z,22.00
2018-07-06T14:39:40.725Z,22.10
2018-07-06T14:42:09.561Z,22.15
2018-07-06T14:44:40.375Z,22.06
2018-07-06T14:47:09.033Z,22.11
2018-07-06T14:49:40.464Z,21.85
2018-07-06T14:52:09.088Z,21.61
2018-07-06T14:54:40.356Z,21.47
2018-07-06T14:57:09.064Z,21.44
2018-07-06T15:02:46.272Z,21.29
2018-07-06T15:05:14.841Z,21.28
2018-07-06T15:07:43.444Z,21.35
2018-07-06T15:10:12.528Z,21.49
2018-07-06T15:12:41.255Z,21.42
2018-07-06T15:15:09.817Z,21.36
2018-07-06T15:17:38.485Z,21.30
2018-07-06T15:20:07.308Z,21.33
2018-07-06T15:22:35.951Z,21.37
2018-07-06T15:25:04.584Z,21.41
2018-07-06T15:27:33.146Z,21.37
2018-07-06T15:30:02.009Z,21.48
2018-07-06T15:32:31.072Z,21.56
2018-07-06T15:34:59.664Z,21.54
2018-07-06T15:37:28.267Z,21.38
2018-07-06T15:39:56.932Z,21.36
2018-07-06T15:42:25.512Z,21.54
2018-07-06T15:44:54.070Z,21.65
2018-07-06T15:47:22.677Z,21.79
2018-07-06T15:49:51.411Z,21.78
2018-07-06T15:52:20.004Z,22.03
2018-07-06T15:54:48.664Z,22.13
2018-07-06T15:57:18.119Z,22.02
2018-07-06T15:59:46.715Z,21.98
2018-07-06T16:02:15.304Z,22.07
2018-07-06T16:04:43.877Z,22.06
2018-07-06T16:07:14.229Z,22.16
2018-07-06T16:09:42.834Z,22.13
2018-07-06T16:12:11.395Z,22.19
2018-07-06T16:14:40.113Z,22.19
2018-07-06T16:17:08.707Z,22.25
2018-07-06T16:19:37.270Z,22.27
2018-07-06T16:22:06.017Z,22.23
2018-07-06T16:24:34.656Z,22.21
2018-07-06T16:27:03.327Z,22.18
2018-07-06T16:29:31.871Z,22.03
2018-07-06T16:32:00.416Z,22.10
2018-07-06T16:34:28.978Z,22.16
2018-07-06T16:36:57.560Z,22.06
2018-07-06T16:39:26.201Z,22.04
2018-07-06T16:41:54.780Z,21.97
2018-07-06T16:44:23.529Z,21.96
2018-07-06T16:46:52.172Z,21.78
2018-07-06T16:51:48.368Z,21.62
2018-07-06T16:54:16.902Z,21.62
2018-07-06T16:56:45.468Z,21.66
2018-07-06T16:59:14.203Z,21.73
2018-07-06T17:01:42.761Z,21.73
2018-07-06T17:04:11.307Z,21.73
2018-07-06T17:06:40.089Z,21.64
2018-07-06T17:09:08.855Z,21.52
2018-07-06T17:11:37.389Z,21.46
2018-07-06T17:14:06.238Z,21.31
2018-07-06T17:16:34.893Z,21.29
2018-07-06T17:19:03.529Z,21.27
2018-07-06T17:21:32.126Z,21.29
2018-07-06T17:24:00.710Z,21.32
2018-07-06T17:26:29.320Z,21.26
2018-07-06T17:28:57.888Z,21.22
2018-07-06T17:31:26.780Z,21.27
2018-07-06T17:33:55.347Z,21.38
2018-07-06T17:36:24.123Z,21.60
2018-07-06T17:38:52.656Z,21.52
2018-07-06T17:41:21.386Z,21.38
2018-07-06T17:43:49.964Z,21.40
2018-07-06T17:46:18.602Z,21.38
2018-07-06T17:48:47.146Z,21.42
2018-07-06T17:51:15.951Z,21.42
2018-07-06T17:53:44.495Z,21.32
2018-07-06T17:56:13.060Z,21.22
2018-07-06T17:58:41.783Z,21.15
2018-07-06T18:01:10.364Z,21.12
2018-07-06T18:03:39.040Z,21.03
2018-07-06T18:06:07.751Z,20.99
2018-07-06T18:08:37.105Z,20.98
2018-07-06T18:11:05.904Z,20.92
2018-07-06T18:13:36.943Z,20.98
2018-07-06T18:16:05.742Z,21.15
2018-07-06T18:18:34.521Z,21.05
2018-07-06T18:21:03.177Z,20.97
2018-07-06T18:23:31.756Z,20.93
2018-07-06T18:26:00.325Z,20.83
2018-07-06T18:28:28.880Z,20.72
2018-07-06T18:30:57.507Z,20.70
2018-07-06T18:33:26.151Z,20.80
2018-07-06T18:35:54.689Z,20.78
2018-07-06T18:38:23.324Z,20.71
2018-07-06T18:40:51.899Z,20.69
2018-07-06T18:43:20.476Z,20.70
2018-07-06T18:45:49.414Z,20.77
2018-07-06T18:48:18.015Z,20.77
2018-07-06T18:50:46.796Z,20.73
2018-07-06T18:53:15.396Z,20.71
2018-07-06T18:55:44.032Z,20.54
2018-07-06T18:58:12.592Z,20.67
2018-07-06T19:00:41.276Z,20.73
2018-07-06T19:03:09.839Z,20.57
2018-07-06T19:05:38.521Z,20.56
2018-07-06T19:08:07.140Z,20.65
2018-07-06T19:10:35.723Z,20.65
2018-07-06T19:13:04.435Z,20.72
2018-07-06T19:15:33.965Z,20.77
2018-07-06T19:18:02.568Z,20.56
2018-07-06T19:20:31.242Z,20.51
2018-07-06T19:22:59.795Z,20.45
2018-07-06T19:25:28.558Z,20.38
2018-07-06T19:27:58.148Z,20.35
2018-07-06T19:30:26.891Z,20.18
2018-07-06T19:32:55.479Z,20.04
2018-07-06T19:35:24.220Z,19.97
2018-07-06T19:37:52.808Z,19.90
2018-07-06T19:40:21.367Z,19.88
2018-07-06T19:42:50.074Z,19.85
2018-07-06T19:45:18.636Z,19.83
2018-07-06T19:47:47.176Z,19.86
2018-07-06T19:50:15.860Z,19.86
2018-07-06T19:52:44.438Z,19.98
2018-07-06T19:55:13.228Z,20.15
2018-07-06T19:57:41.818Z,20.13
2018-07-06T20:00:10.471Z,19.98
2018-07-06T20:02:39.049Z,20.00
2018-07-06T20:05:07.964Z,19.97
2018-07-06T20:07:37.398Z,20.01
2018-07-06T20:10:06.379Z,20.18
2018-07-06T20:12:35.028Z,20.12
2018-07-06T20:15:03.636Z,20.03
2018-07-06T20:17:32.229Z,20.06
2018-07-06T20:20:01.061Z,19.98
2018-07-06T20:22:29.744Z,19.97
2018-07-06T20:24:58.366Z,19.98
2018-07-06T20:27:26.961Z,20.00
2018-07-06T20:29:56.522Z,20.03
2018-07-06T20:32:25.061Z,20.01
2018-07-06T20:34:53.642Z,20.01
2018-07-06T20:37:22.246Z,20.02
2018-07-06T20:39:50.824Z,20.04
2018-07-06T20:42:19.450Z,20.08
2018-07-06T20:44:48.018Z,20.04
2018-07-06T20:47:16.637Z,20.03
2018-07-06T20:49:45.176Z,20.00
2018-07-06T20:52:13.797Z,19.92
2018-07-06T20:54:42.335Z,19.86
2018-07-06T20:57:10.901Z,19.86
2018-07-06T20:59:39.641Z,19.82
2018-07-06T21:02:08.312Z,19.87
2018-07-06T21:04:36.874Z,19.79
2018-07-06T21:07:05.910Z,19.74
2018-07-06T21:09:34.607Z,19.83
2018-07-06T21:12:03.562Z,19.64
2018-07-06T21:14:32.302Z,19.56
2018-07-06T21:17:00.885Z,19.47
2018-07-06T21:19:29.443Z,19.48
2018-07-06T21:21:58.073Z,19.39
2018-07-06T21:24:26.656Z,19.39
2018-07-06T21:26:55.216Z,19.31
2018-07-06T21:29:23.825Z,19.39
2018-07-06T21:31:52.579Z,19.39
2018-07-06T21:34:21.516Z,19.40
2018-07-06T21:39:40.309Z,19.48
2018-07-06T21:42:08.890Z,19.39
2018-07-06T21:44:37.662Z,19.31
2018-07-06T21:47:06.862Z,19.24
2018-07-06T21:49:35.682Z,19.27
2018-07-06T21:52:04.308Z,19.15
2018-07-06T21:57:23.409Z,19.11
2018-07-06T21:59:52.139Z,19.16
2018-07-06T22:02:20.945Z,19.18
2018-07-06T22:04:49.540Z,19.08
2018-07-06T22:07:18.890Z,18.90
2018-07-06T22:09:47.651Z,19.01
2018-07-06T22:12:16.224Z,19.03
2018-07-06T22:14:44.825Z,19.23
2018-07-06T22:17:14.008Z,19.24
2018-07-06T22:19:42.622Z,19.23
2018-07-06T22:22:11.257Z,19.07
2018-07-06T22:24:39.852Z,19.14
2018-07-06T22:27:08.400Z,19.04
2018-07-06T22:29:36.935Z,19.08
2018-07-06T22:32:05.572Z,19.14
2018-07-06T22:34:34.122Z,19.14
2018-07-06T22:37:02.703Z,19.15
2018-07-06T22:39:31.343Z,19.19
2018-07-06T22:41:59.856Z,19.17
2018-07-06T22:44:28.734Z,19.21
2018-07-06T22:46:57.337Z,19.18
2018-07-06T22:49:25.935Z,19.15
2018-07-06T22:51:54.517Z,19.23
2018-07-06T22:54:23.101Z,19.30
2018-07-06T22:56:51.751Z,19.22
2018-07-06T22:59:30.425Z,19.07
2018-07-06T23:01:59.107Z,18.98
2018-07-06T23:04:27.773Z,18.98
2018-07-06T23:06:56.315Z,19.02
2018-07-06T23:09:24.886Z,18.97
2018-07-06T23:11:53.584Z,19.00
2018-07-06T23:14:22.367Z,19.12
2018-07-06T23:16:50.937Z,19.16
2018-07-06T23:19:19.636Z,19.10
2018-07-06T23:21:48.228Z,19.05
2018-07-06T23:24:16.799Z,19.00
2018-07-06T23:26:45.407Z,19.02
2018-07-06T23:29:13.989Z,19.10
2018-07-06T23:34:32.851Z,18.90
2018-07-06T23:37:01.429Z,18.90
2018-07-06T23:39:29.975Z,18.89
2018-07-06T23:41:58.562Z,18.91
2018-07-06T23:44:27.116Z,18.89
2018-07-06T23:46:55.665Z,18.85
2018-07-06T23:49:24.219Z,18.80
2018-07-06T23:51:52.800Z,18.82
2018-07-06T23:54:21.390Z,18.81
2018-07-06T23:56:49.954Z,18.89
2018-07-06T23:59:18.518Z,18.92
